Time;durP1;ratioP1;P1;durP2;ratioP2;P2;SDS_P1;SDS_P2;PMS_P1;PMS_P2;Temp;Humidity;BMP_temperature;BMP_pressure;BME280_temperature;BME280_humidity;BME280_pressure;Samples;Min_cycle;Max_cycle;Signal;HPM_P1;HPM_P2
2021/11/14 00:01:02;;;;;;;116.72;37.30;;;;;;;8.83;65.94;100270.31;4469407;32;34210;-59
2021/11/14 00:03:32;;;;;;;115.35;37.80;;;;;;;8.76;66.51;100278.84;4469407;32;34102;-56
2021/11/14 00:06:01;;;;;;;103.03;36.83;;;;;;;8.94;65.91;100269.59;4469229;32;34509;-56
2021/11/14 00:08:28;;;;;;;98.72;35.72;;;;;;;9.07;65.19;100269.78;4469246;32;33682;-59
2021/11/14 00:11:00;;;;;;;122.37;39.95;;;;;;;8.99;65.36;100273.09;4469116;32;33758;-58
2021/11/14 00:13:28;;;;;;;106.90;36.40;;;;;;;8.67;66.45;100275.25;4469146;32;35286;-56
2021/11/14 00:15:56;;;;;;;112.53;38.88;;;;;;;8.89;65.60;100266.91;4467920;32;34315;-59
2021/11/14 00:18:23;;;;;;;115.35;37.53;;;;;;;8.84;65.83;100269.44;4469126;32;34298;-56
2021/11/14 00:20:51;;;;;;;109.32;36.60;;;;;;;8.86;65.67;100269.50;4468984;32;34646;-56
2021/11/14 00:23:19;;;;;;;118.55;39.45;;;;;;;8.77;66.00;100271.97;4469111;32;35527;-57
2021/11/14 00:25:47;;;;;;;105.93;36.95;;;;;;;8.82;65.84;100275.47;4469019;32;34456;-58
2021/11/14 00:28:14;;;;;;;119.50;38.33;;;;;;;8.70;66.38;100270.13;4468980;32;33837;-56
2021/11/14 00:30:42;;;;;;;117.13;38.88;;;;;;;8.83;65.99;100264.25;4469383;32;34460;-57
2021/11/14 00:33:11;;;;;;;117.70;39.85;;;;;;;8.79;65.87;100265.06;4468820;32;35236;-59
2021/11/14 00:35:40;;;;;;;110.80;40.92;;;;;;;8.85;65.89;100259.94;4468269;32;34526;-57
2021/11/14 00:38:08;;;;;;;123.85;40.30;;;;;;;8.94;65.61;100259.22;4468893;32;33896;-55
2021/11/14 00:40:38;;;;;;;112.37;38.92;;;;;;;8.65;66.37;100253.63;4469084;32;33974;-59
2021/11/14 00:43:05;;;;;;;104.72;37.95;;;;;;;8.69;66.43;100258.00;4469160;32;34583;-58
2021/11/14 00:45:35;;;;;;;106.05;37.63;;;;;;;8.59;66.61;100250.91;4468971;32;34392;-58
2021/11/14 00:48:03;;;;;;;111.03;38.22;;;;;;;8.82;65.94;100259.91;4468996;32;34261;-59
2021/11/14 00:50:32;;;;;;;108.65;37.67;;;;;;;8.80;65.82;100246.91;4468835;32;34571;-56
2021/11/14 00:53:01;;;;;;;110.97;39.42;;;;;;;8.72;66.12;100251.13;4467563;32;34947;-56
2021/11/14 00:55:31;;;;;;;113.28;39.45;;;;;;;8.65;66.48;100254.47;4468826;32;34528;-59
2021/11/14 00:57:59;;;;;;;112.97;39.03;;;;;;;8.68;66.28;100257.13;4467582;32;34383;-58
2021/11/14 01:00:27;;;;;;;112.97;38.55;;;;;;;8.56;66.84;100251.75;4469037;32;33914;-57
2021/11/14 01:02:56;;;;;;;111.88;40.00;;;;;;;8.78;65.91;100266.78;4468564;32;35695;-59
2021/11/14 01:05:25;;;;;;;114.15;38.83;;;;;;;8.80;66.13;100248.62;4468789;32;35698;-56
2021/11/14 01:07:52;;;;;;;106.25;39.33;;;;;;;8.78;66.19;100250.34;4468715;32;33675;-58
2021/11/14 01:10:24;;;;;;;113.70;41.35;;;;;;;8.73;66.20;100254.59;4468833;32;34472;-54
2021/11/14 01:12:51;;;;;;;109.95;39.92;;;;;;;8.83;65.86;100252.16;4468617;32;35205;-54
2021/11/14 01:15:20;;;;;;;104.25;37.65;;;;;;;8.83;65.84;100235.72;4467411;32;34157;-59
2021/11/14 01:17:48;;;;;;;107.97;37.42;;;;;;;8.73;65.94;100244.22;4468701;32;34350;-54
2021/11/14 01:20:19;;;;;;;102.20;38.47;;;;;;;8.76;66.07;100239.06;4467447;32;33822;-58
2021/11/14 01:22:48;;;;;;;112.53;38.45;;;;;;;8.75;66.10;100250.28;4468878;32;35069;-55
2021/11/14 01:25:17;;;;;;;108.82;39.00;;;;;;;8.79;66.03;100257.28;4468526;32;34545;-59
2021/11/14 01:27:46;;;;;;;107.05;37.08;;;;;;;8.75;66.18;100250.28;4468640;32;34497;-60
2021/11/14 01:30:20;;;;;;;108.45;37.92;;;;;;;8.82;65.72;100255.59;4468582;32;34694;-57
2021/11/14 01:32:48;;;;;;;108.35;37.97;;;;;;;8.83;65.64;100259.94;4468513;32;35724;-56
2021/11/14 01:35:15;;;;;;;107.65;38.63;;;;;;;8.92;64.98;100250.53;4468601;32;35152;-57
2021/11/14 01:37:44;;;;;;;113.43;39.78;;;;;;;8.85;65.12;100255.62;4468580;32;34051;-56
2021/11/14 01:40:16;;;;;;;103.90;39.58;;;;;;;8.93;65.18;100257.47;4468679;32;33984;-56
2021/11/14 01:42:44;;;;;;;117.45;40.95;;;;;;;8.89;65.24;100255.69;4468806;32;34847;-58
2021/11/14 01:45:13;;;;;;;108.40;38.92;;;;;;;8.79;65.57;100252.94;4468435;32;34531;-59
2021/11/14 01:47:40;;;;;;;112.43;39.72;;;;;;;8.62;66.20;100256.16;4468431;32;33599;-56
2021/11/14 01:50:11;;;;;;;113.03;40.92;;;;;;;8.67;66.10;100252.78;4468454;32;34192;-52
2021/11/14 01:52:40;;;;;;;110.13;40.40;;;;;;;8.89;65.10;100246.16;4468366;32;34510;-56
2021/11/14 01:55:09;;;;;;;109.45;39.50;;;;;;;8.92;65.26;100250.53;4468522;32;34148;-57
2021/11/14 01:57:37;;;;;;;123.72;42.88;;;;;;;8.92;65.30;100256.59;4468411;32;34355;-56
2021/11/14 02:00:08;;;;;;;115.60;41.50;;;;;;;8.78;65.74;100259.00;4468299;32;33898;-59
2021/11/14 02:02:38;;;;;;;123.95;43.05;;;;;;;8.89;65.53;100259.12;4468424;32;34673;-56
2021/11/14 02:05:08;;;;;;;116.82;41.55;;;;;;;8.80;65.65;100271.97;4468167;32;34232;-59
2021/11/14 02:07:35;;;;;;;119.35;39.05;;;;;;;8.71;66.11;100280.50;4468485;32;34055;-56
2021/11/14 02:10:06;;;;;;;111.57;37.97;;;;;;;8.85;65.70;100278.09;4468262;32;33945;-56
2021/11/14 02:12:34;;;;;;;113.43;40.63;;;;;;;8.89;65.47;100263.47;4468238;32;35695;-54
2021/11/14 02:15:02;;;;;;;127.87;41.00;;;;;;;8.89;65.46;100266.06;4468551;32;35100;-57
2021/11/14 02:17:30;;;;;;;130.82;43.78;;;;;;;8.92;65.40;100266.09;4468305;32;33616;-55
2021/11/14 02:19:58;;;;;;;130.12;44.33;;;;;;;8.75;65.76;100266.72;4468321;32;34756;-58
2021/11/14 02:22:26;;;;;;;133.70;44.20;;;;;;;8.75;65.96;100253.75;4468301;32;35774;-57
2021/11/14 02:24:53;;;;;;;128.12;42.08;;;;;;;8.76;65.74;100258.13;4468182;32;35312;-53
2021/11/14 02:27:21;;;;;;;122.53;41.72;;;;;;;8.56;66.31;100256.06;4468294;32;34516;-57
2021/11/14 02:29:49;;;;;;;127.05;41.40;;;;;;;8.58;66.22;100250.03;4467025;32;33936;-54
2021/11/14 02:32:16;;;;;;;125.75;40.78;;;;;;;8.61;66.09;100246.63;4466825;32;35330;-57
2021/11/14 02:35:03;;;;;;;126.62;40.40;;;;;;;8.59;66.26;100245.75;4468175;32;34605;-55
2021/11/14 02:37:31;;;;;;;108.43;40.15;;;;;;;8.57;66.48;100263.00;4468374;32;33657;-54
2021/11/14 02:39:59;;;;;;;122.75;42.33;;;;;;;8.72;65.81;100263.22;4468041;32;33947;-55
2021/11/14 02:42:27;;;;;;;115.00;41.13;;;;;;;8.71;65.85;100264.94;4468050;32;34945;-53
2021/11/14 02:44:54;;;;;;;120.87;43.10;;;;;;;8.90;65.16;100260.87;4468301;32;34447;-59
2021/11/14 02:47:22;;;;;;;118.80;42.60;;;;;;;8.83;65.50;100265.13;4468601;32;35330;-59
2021/11/14 02:49:49;;;;;;;111.68;38.85;;;;;;;8.87;65.46;100268.63;4468186;32;33891;-57
2021/11/14 02:52:17;;;;;;;109.05;39.85;;;;;;;8.89;65.38;100282.47;4467774;32;35714;-55
2021/11/14 02:54:44;;;;;;;112.85;39.88;;;;;;;9.00;64.94;100282.62;4467926;32;35158;-54
2021/11/14 02:57:12;;;;;;;114.60;41.83;;;;;;;9.04;64.92;100281.81;4467590;32;34691;-55
2021/11/14 02:59:40;;;;;;;110.70;40.80;;;;;;;9.02;64.93;100278.34;4467632;32;34565;-59
2021/11/14 03:02:08;;;;;;;120.30;40.88;;;;;;;9.24;64.10;100275.19;4466574;32;34932;-57
2021/11/14 03:04:35;;;;;;;107.90;41.85;;;;;;;9.11;64.52;100268.06;4467887;32;34965;-55
2021/11/14 03:07:03;;;;;;;109.43;41.67;;;;;;;9.32;63.84;100261.44;4467965;32;33545;-56
2021/11/14 03:09:32;;;;;;;127.07;43.15;;;;;;;9.37;63.67;100264.06;4466788;32;33438;-54
2021/11/14 03:12:00;;;;;;;123.62;43.40;;;;;;;9.12;64.10;100270.72;4467698;32;34933;-56
2021/11/14 03:14:46;;;;;;;120.10;40.35;;;;;;;9.05;64.68;100268.00;4468019;32;35590;-57
2021/11/14 03:17:14;;;;;;;115.95;40.45;;;;;;;8.97;65.05;100272.22;4467938;32;33277;-56
2021/11/14 03:19:42;;;;;;;123.38;41.55;;;;;;;9.10;64.73;100271.53;4467721;32;33973;-58
2021/11/14 03:22:10;;;;;;;122.85;44.00;;;;;;;9.05;64.82;100289.66;4467765;32;35492;-55
2021/11/14 03:24:38;;;;;;;127.68;41.85;;;;;;;9.11;64.57;100294.03;4467595;32;34310;-58
2021/11/14 03:27:06;;;;;;;111.03;40.80;;;;;;;9.16;64.52;100295.84;4467510;32;34230;-56
2021/11/14 03:29:33;;;;;;;124.22;43.67;;;;;;;9.32;63.85;100283.91;4467820;32;34750;-57
2021/11/14 03:32:01;;;;;;;126.47;42.70;;;;;;;9.17;64.31;100286.34;4467389;32;35336;-58
2021/11/14 03:34:29;;;;;;;112.50;39.67;;;;;;;9.02;64.99;100293.91;4467705;32;34183;-58
2021/11/14 03:36:56;;;;;;;124.85;41.58;;;;;;;9.18;64.64;100295.84;4467156;32;34652;-57
2021/11/14 03:39:24;;;;;;;110.68;39.42;;;;;;;9.39;63.65;100284.00;4467370;32;34034;-58
2021/11/14 03:41:54;;;;;;;112.65;40.22;;;;;;;9.32;63.82;100286.50;4467302;32;35659;-59
2021/11/14 03:44:21;;;;;;;99.55;37.92;;;;;;;9.24;64.22;100295.94;4467209;32;35185;-57
2021/11/14 03:46:49;;;;;;;98.65;37.13;;;;;;;9.35;63.75;100289.16;4467364;32;33601;-57
2021/11/14 03:49:16;;;;;;;97.62;36.05;;;;;;;9.28;63.85;100287.34;4467362;32;34734;-58
2021/11/14 03:51:44;;;;;;;100.68;37.47;;;;;;;9.25;64.13;100282.09;4467019;32;34880;-57
2021/11/14 03:54:12;;;;;;;100.47;37.78;;;;;;;9.18;64.51;100288.06;4465712;32;34968;-52
2021/11/14 03:56:39;;;;;;;105.82;37.83;;;;;;;9.14;64.77;100304.44;4467028;32;33480;-56
2021/11/14 03:59:06;;;;;;;101.20;38.13;;;;;;;9.33;63.85;100293.47;4467023;32;34346;-56
2021/11/14 04:01:34;;;;;;;106.95;38.65;;;;;;;9.31;64.08;100302.97;4466666;32;34656;-56
2021/11/14 04:04:02;;;;;;;97.20;37.30;;;;;;;9.29;64.21;100292.56;4467015;32;34302;-55
2021/11/14 04:06:30;;;;;;;100.38;37.13;;;;;;;9.30;64.25;100296.88;4466833;32;34091;-56
2021/11/14 04:08:59;;;;;;;104.40;37.65;;;;;;;9.32;64.20;100302.09;4467165;32;34649;-59
2021/11/14 04:11:27;;;;;;;99.60;36.25;;;;;;;9.59;63.08;100288.56;4467688;32;35004;-59
2021/11/14 04:13:55;;;;;;;101.07;34.72;;;;;;;9.63;62.96;100291.22;4468865;32;34673;-55
2021/11/14 04:16:23;;;;;;;98.80;36.97;;;;;;;9.53;63.45;100289.41;4469221;32;33719;-54
2021/11/14 04:18:51;;;;;;;94.10;35.55;;;;;;;9.58;63.35;100286.84;4469122;32;34070;-58
2021/11/14 04:21:18;;;;;;;104.22;37.95;;;;;;;9.39;63.70;100281.41;4469142;32;35198;-56
2021/11/14 04:23:45;;;;;;;93.25;35.97;;;;;;;9.54;63.41;100285.94;4469064;32;35176;-58
2021/11/14 04:26:13;;;;;;;98.28;35.42;;;;;;;9.51;63.61;100286.75;4469055;32;33676;-57
2021/11/14 04:28:41;;;;;;;96.70;36.17;;;;;;;9.24;64.41;100290.75;4469121;32;35373;-57
2021/11/14 04:31:08;;;;;;;92.65;34.85;;;;;;;9.49;63.86;100301.44;4468913;32;35674;-58
2021/11/14 04:33:36;;;;;;;97.53;36.90;;;;;;;9.51;63.55;100296.28;4468863;32;34433;-58
2021/11/14 04:36:05;;;;;;;94.13;34.10;;;;;;;9.49;63.51;100300.56;4469009;32;34537;-55
2021/11/14 04:38:33;;;;;;;88.95;34.22;;;;;;;9.38;63.73;100297.00;4468983;32;34447;-56
2021/11/14 04:41:02;;;;;;;92.85;34.38;;;;;;;9.46;63.64;100293.63;4469055;32;34737;-57
2021/11/14 04:43:30;;;;;;;91.63;33.72;;;;;;;9.44;63.62;100295.34;4468863;32;35120;-55
2021/11/14 04:45:57;;;;;;;89.90;33.20;;;;;;;9.44;63.61;100300.53;4469300;32;33744;-56
2021/11/14 04:48:25;;;;;;;88.68;32.50;;;;;;;9.39;63.57;100288.31;4468756;32;33940;-57
2021/11/14 04:50:53;;;;;;;86.78;32.35;;;;;;;9.47;63.31;100286.72;4468877;32;35923;-59
2021/11/14 04:53:20;;;;;;;88.22;34.92;;;;;;;9.49;63.00;100287.59;4468768;32;34479;-54
2021/11/14 04:55:48;;;;;;;89.07;34.42;;;;;;;9.52;62.65;100283.31;4468651;32;33563;-54
2021/11/14 04:58:16;;;;;;;89.95;34.00;;;;;;;9.34;63.34;100280.50;4468687;32;34414;-57
2021/11/14 05:00:47;;;;;;;90.78;32.55;;;;;;;9.24;63.66;100289.03;4468866;32;35336;-53
2021/11/14 05:03:15;;;;;;;81.47;32.83;;;;;;;9.30;63.55;100288.22;4468809;32;34510;-59
2021/11/14 05:05:43;;;;;;;87.80;33.60;;;;;;;9.20;63.82;100291.56;4468647;32;33649;-56
2021/11/14 05:08:11;;;;;;;85.60;33.45;;;;;;;9.32;63.40;100302.09;4467863;32;34881;-54
2021/11/14 05:10:39;;;;;;;94.22;33.80;;;;;;;9.40;63.25;100309.13;4468809;32;34857;-59
2021/11/14 05:13:07;;;;;;;92.88;34.75;;;;;;;9.27;63.66;100316.75;4468993;32;34313;-57
2021/11/14 05:15:35;;;;;;;88.47;35.47;;;;;;;9.23;63.95;100312.34;4468788;32;33538;-57
2021/11/14 05:18:03;;;;;;;90.62;34.05;;;;;;;9.26;63.73;100320.19;4468703;32;34720;-59
2021/11/14 05:20:34;;;;;;;91.72;34.45;;;;;;;9.39;63.35;100322.97;4468242;32;35901;-54
2021/11/14 05:23:03;;;;;;;89.85;32.83;;;;;;;9.35;63.36;100320.31;4468696;32;35159;-59
2021/11/14 05:25:31;;;;;;;100.47;35.67;;;;;;;9.29;63.62;100321.13;4468639;32;34900;-54
2021/11/14 05:27:58;;;;;;;90.03;34.55;;;;;;;9.39;63.25;100315.16;4468543;32;33882;-58
2021/11/14 05:30:26;;;;;;;86.87;34.25;;;;;;;9.50;62.95;100318.78;4468761;32;35804;-56
2021/11/14 05:32:53;;;;;;;90.80;34.03;;;;;;;9.54;62.87;100323.16;4468578;32;34377;-57
2021/11/14 05:35:21;;;;;;;88.10;34.22;;;;;;;9.54;62.95;100319.69;4468448;32;33535;-57
2021/11/14 05:37:48;;;;;;;92.28;34.63;;;;;;;9.42;63.27;100337.69;4468516;32;34435;-57
2021/11/14 05:40:16;;;;;;;87.82;33.55;;;;;;;9.53;63.00;100321.41;4467310;32;35843;-54
2021/11/14 05:42:43;;;;;;;80.80;30.77;;;;;;;9.54;62.92;100322.28;4467431;32;34499;-54
2021/11/14 05:45:11;;;;;;;92.57;32.97;;;;;;;9.46;63.33;100319.59;4468511;32;33700;-58
2021/11/14 05:47:38;;;;;;;79.75;32.90;;;;;;;9.58;62.85;100323.19;4468379;32;34720;-57
2021/11/14 05:50:08;;;;;;;82.15;32.75;;;;;;;9.62;62.58;100315.47;4468512;32;35706;-57
2021/11/14 05:52:36;;;;;;;84.40;32.30;;;;;;;9.46;63.25;100321.34;4468340;32;34279;-56
2021/11/14 05:55:05;;;;;;;79.15;31.05;;;;;;;9.63;62.77;100321.53;4468388;32;34229;-56
2021/11/14 05:57:44;;;;;;;79.47;31.62;;;;;;;9.51;62.99;100325.72;4467534;32;33492;-55
2021/11/14 06:00:18;;;;;;;77.07;31.35;;;;;;;9.43;63.26;100334.28;4468408;32;34843;-57
2021/11/14 06:02:54;;;;;;;80.57;30.50;;;;;;;9.40;63.27;100345.47;4468298;32;34410;-54
2021/11/14 06:05:24;;;;;;;76.18;30.70;;;;;;;9.41;63.42;100347.22;4468681;32;34561;-58
2021/11/14 06:07:52;;;;;;;79.82;31.12;;;;;;;9.42;63.17;100354.16;4468400;32;33398;-57
2021/11/14 06:10:19;;;;;;;86.63;33.67;;;;;;;9.66;62.55;100351.00;4468356;32;35447;-55
2021/11/14 06:12:47;;;;;;;76.45;31.45;;;;;;;9.52;62.78;100355.16;4468469;32;34165;-58
2021/11/14 06:15:18;;;;;;;70.10;31.08;;;;;;;9.50;63.14;100368.12;4468239;32;33797;-56
2021/11/14 06:17:46;;;;;;;81.35;31.20;;;;;;;9.41;63.46;100365.38;4468390;32;33916;-57
2021/11/14 06:20:14;;;;;;;79.07;34.17;;;;;;;9.60;62.82;100374.31;4468033;32;34778;-59
2021/11/14 06:22:42;;;;;;;82.50;30.85;;;;;;;9.60;62.89;100382.09;4468210;32;34393;-58
2021/11/14 06:25:10;;;;;;;79.55;33.67;;;;;;;9.70;62.47;100375.31;4468143;32;34516;-58
2021/11/14 06:27:38;;;;;;;82.07;32.22;;;;;;;9.34;63.37;100380.88;4466835;32;33909;-59
2021/11/14 06:30:09;;;;;;;82.18;31.80;;;;;;;9.45;63.39;100374.09;4468084;32;34918;-55
2021/11/14 06:32:37;;;;;;;83.12;32.67;;;;;;;9.60;62.99;100368.25;4467036;32;34441;-59
2021/11/14 06:35:05;;;;;;;77.03;32.20;;;;;;;9.65;62.90;100383.00;4468047;32;34645;-57
2021/11/14 06:37:33;;;;;;;77.57;32.83;;;;;;;9.57;63.11;100387.25;4466933;32;34965;-55
2021/11/14 06:40:00;;;;;;;83.07;32.03;;;;;;;9.57;63.13;100382.06;4467161;32;34881;-55
2021/11/14 06:42:28;;;;;;;80.65;32.58;;;;;;;9.55;63.37;100387.22;4467997;32;34422;-58
2021/11/14 06:44:55;;;;;;;80.00;34.20;;;;;;;9.61;63.26;100381.22;4468042;32;35897;-57
2021/11/14 06:47:23;;;;;;;75.62;32.78;;;;;;;9.69;62.89;100395.19;4468269;32;33765;-56
2021/11/14 06:49:52;;;;;;;77.32;32.05;;;;;;;9.75;62.98;100387.47;4468018;32;34917;-55
2021/11/14 06:52:20;;;;;;;72.68;31.95;;;;;;;9.77;62.80;100405.69;4467874;32;34498;-56
2021/11/14 06:54:49;;;;;;;83.10;35.83;;;;;;;9.82;62.47;100402.28;4467980;32;34500;-59
2021/11/14 06:57:19;;;;;;;86.82;34.30;;;;;;;9.84;62.38;100400.56;4454451;32;34617;-59
2021/11/14 06:59:48;;;;;;;81.72;35.05;;;;;;;9.82;62.70;100401.41;4467668;32;35129;-57
2021/11/14 07:02:16;;;;;;;81.53;34.55;;;;;;;9.86;62.73;100396.28;4467656;32;34913;-55
2021/11/14 07:04:44;;;;;;;79.07;33.35;;;;;;;9.99;62.47;100398.16;4467925;32;34429;-55
2021/11/14 07:07:13;;;;;;;78.40;33.70;;;;;;;9.97;62.44;100401.59;4467622;32;34220;-56
2021/11/14 07:09:40;;;;;;;73.43;30.95;;;;;;;9.95;62.30;100392.91;4467631;32;34991;-57
2021/11/14 07:12:09;;;;;;;71.35;31.58;;;;;;;10.04;61.66;100393.88;4467696;32;34389;-54
2021/11/14 07:14:36;;;;;;;78.43;33.00;;;;;;;10.00;61.98;100397.31;4467633;32;33750;-57
2021/11/14 07:17:04;;;;;;;74.45;31.40;;;;;;;10.02;62.05;100398.19;4467321;32;35062;-54
2021/11/14 07:19:32;;;;;;;67.75;30.25;;;;;;;10.04;62.30;100399.09;4467401;32;34843;-59
2021/11/14 07:22:00;;;;;;;69.07;29.20;;;;;;;10.13;61.68;100396.63;4467307;32;35213;-57
2021/11/14 07:24:28;;;;;;;70.60;30.33;;;;;;;10.25;66.53;100398.47;4467304;32;33735;-59
2021/11/14 07:26:55;;;;;;;67.25;29.52;;;;;;;10.39;64.17;100396.03;4466139;32;34585;-56
2021/11/14 07:29:23;;;;;;;71.95;30.37;;;;;;;10.48;62.41;100404.81;4467582;32;35863;-57
2021/11/14 07:31:50;;;;;;;69.20;31.33;;;;;;;10.52;61.03;100400.47;4467240;32;34709;-54
2021/11/14 07:34:18;;;;;;;70.85;31.42;;;;;;;10.51;60.89;100404.81;4467179;32;33844;-54
2021/11/14 07:36:45;;;;;;;73.68;32.05;;;;;;;10.50;62.18;100404.81;4465914;32;34460;-59
2021/11/14 07:39:13;;;;;;;73.50;31.83;;;;;;;10.75;60.83;100401.56;4466639;32;34770;-55
2021/11/14 07:41:40;;;;;;;66.80;29.05;;;;;;;10.75;60.30;100401.56;4467378;32;35183;-58
2021/11/14 07:44:08;;;;;;;63.72;28.80;;;;;;;10.68;59.85;100400.63;4467812;32;34147;-59
2021/11/14 07:46:35;;;;;;;64.10;28.98;;;;;;;10.65;60.15;100399.75;4468828;32;33818;-59
2021/11/14 07:49:03;;;;;;;63.60;27.98;;;;;;;10.75;59.89;100401.56;4468726;32;35987;-54
2021/11/14 07:51:31;;;;;;;66.75;29.35;;;;;;;10.67;60.02;100400.63;4468242;32;35099;-55
2021/11/14 07:54:03;;;;;;;67.25;29.87;;;;;;;10.57;60.54;100399.69;4469271;32;35132;-54
2021/11/14 07:56:31;;;;;;;61.47;29.08;;;;;;;10.56;60.84;100407.44;4469101;32;33793;-54
2021/11/14 07:58:58;;;;;;;67.35;30.77;;;;;;;10.56;60.79;100404.84;4468638;32;35245;-58
2021/11/14 08:01:26;;;;;;;68.20;30.17;;;;;;;10.83;60.03;100405.09;4468254;32;34348;-55
2021/11/14 08:03:54;;;;;;;61.13;29.90;;;;;;;10.65;60.65;100410.16;4467977;32;34777;-59
2021/11/14 08:06:21;;;;;;;60.42;29.30;;;;;;;10.71;60.52;100405.00;4468477;32;35151;-57
2021/11/14 08:08:49;;;;;;;59.97;27.45;;;;;;;10.71;60.57;100411.09;4467428;32;36031;-58
2021/11/14 08:11:17;;;;;;;57.60;27.67;;;;;;;10.79;60.03;100408.56;4468413;32;35814;-55
2021/11/14 08:13:44;;;;;;;60.33;27.85;;;;;;;10.95;59.18;100412.12;4468609;32;34080;-55
2021/11/14 08:16:12;;;;;;;60.12;28.27;;;;;;;10.81;59.51;100412.03;4469264;32;34099;-56
2021/11/14 08:18:39;;;;;;;59.45;28.73;;;;;;;10.69;59.88;100423.22;4468612;32;34920;-54
2021/11/14 08:21:07;;;;;;;63.47;31.20;;;;;;;10.63;60.38;100411.84;4468691;32;35009;-55
2021/11/14 08:23:34;;;;;;;61.17;29.30;;;;;;;10.73;60.04;100413.69;4469030;32;34534;-55
2021/11/14 08:26:03;;;;;;;63.45;30.23;;;;;;;10.59;60.51;100415.28;4468710;32;34522;-54
2021/11/14 08:28:30;;;;;;;58.92;28.90;;;;;;;10.68;60.36;100420.56;4468642;32;35208;-55
2021/11/14 08:30:58;;;;;;;61.00;30.50;;;;;;;10.62;60.27;100420.53;4468684;32;34299;-58
2021/11/14 08:33:37;;;;;;;63.42;30.25;;;;;;;10.74;59.83;100420.66;4469219;32;34671;-56
2021/11/14 08:36:05;;;;;;;65.25;31.70;;;;;;;10.75;59.90;100427.56;4468616;32;33991;-55
2021/11/14 08:38:34;;;;;;;68.53;32.10;;;;;;;10.79;59.80;100421.56;4467463;32;34987;-55
2021/11/14 08:41:02;;;;;;;63.72;29.60;;;;;;;10.75;59.85;100423.25;4468575;32;34360;-57
2021/11/14 08:43:30;;;;;;;69.18;33.65;;;;;;;10.83;59.65;100429.41;4468605;32;33370;-56
2021/11/14 08:46:00;;;;;;;64.55;30.70;;;;;;;11.00;59.20;100428.66;4468485;32;35389;-56
2021/11/14 08:48:28;;;;;;;70.05;31.37;;;;;;;10.87;59.63;100436.38;4468467;32;34695;-58
2021/11/14 08:50:56;;;;;;;64.50;31.58;;;;;;;11.10;58.91;100438.28;4468887;32;34467;-55
2021/11/14 08:53:24;;;;;;;67.53;31.80;;;;;;;11.02;59.30;100446.03;4468459;32;34355;-55
2021/11/14 08:55:53;;;;;;;66.82;31.85;;;;;;;10.99;59.27;100456.41;4467976;32;34005;-55
2021/11/14 08:58:34;;;;;;;64.78;31.60;;;;;;;10.97;59.17;100449.44;4468848;32;34748;-56
2021/11/14 09:01:06;;;;;;;64.85;31.75;;;;;;;11.11;58.81;100456.53;4468681;32;34501;-57
2021/11/14 09:03:33;;;;;;;65.97;30.77;;;;;;;11.01;59.45;100459.91;4468596;32;33647;-58
2021/11/14 09:06:02;;;;;;;63.25;30.40;;;;;;;11.16;59.03;100460.03;4468738;32;33654;-55
2021/11/14 09:08:29;;;;;;;56.25;29.58;;;;;;;11.31;58.47;100459.28;4468375;32;34922;-54
2021/11/14 09:10:57;;;;;;;63.33;29.98;;;;;;;11.43;58.47;100457.63;4468416;32;33994;-54
2021/11/14 09:13:26;;;;;;;62.03;31.10;;;;;;;11.46;58.82;100461.97;4467205;32;33821;-57
2021/11/14 09:15:58;;;;;;;63.78;31.25;;;;;;;11.48;57.96;100457.66;4467767;32;34078;-54
2021/11/14 09:18:26;;;;;;;;;;;;;;;11.55;57.75;100457.69;4468966;32;35309;-58
2021/11/14 09:20:54;;;;;;;61.88;29.60;;;;;;;11.74;57.02;100457.84;4468231;32;34760;-55
2021/11/14 09:23:22;;;;;;;66.32;32.65;;;;;;;11.81;56.73;100450.09;4467513;32;34584;-57
2021/11/14 09:25:50;;;;;;;64.10;31.15;;;;;;;11.58;57.79;100456.84;4467830;32;33836;-54
2021/11/14 09:28:17;;;;;;;64.62;31.37;;;;;;;11.83;57.65;100460.50;4468133;32;35511;-56
2021/11/14 09:30:49;;;;;;;63.40;31.25;;;;;;;11.80;57.25;100450.06;4468099;32;34387;-58
2021/11/14 09:33:18;;;;;;;61.20;30.75;;;;;;;11.87;56.88;100449.22;4468023;32;33820;-52
2021/11/14 09:35:46;;;;;;;68.15;31.48;;;;;;;11.80;58.05;100452.66;4466518;32;34354;-54
2021/11/14 09:38:14;;;;;;;54.92;28.83;;;;;;;11.94;57.39;100456.22;4466038;32;34799;-56
2021/11/14 09:40:42;;;;;;;64.62;30.60;;;;;;;11.75;58.79;100456.97;4467820;32;34303;-57
2021/11/14 09:43:12;;;;;;;63.83;31.87;;;;;;;11.95;56.87;100451.03;4467658;32;34633;-54
2021/11/14 09:45:40;;;;;;;62.17;30.40;;;;;;;11.85;57.25;100458.78;4467894;32;33991;-55
2021/11/14 09:48:08;;;;;;;61.25;30.73;;;;;;;11.99;56.76;100454.50;4467798;32;35822;-54
2021/11/14 09:50:36;;;;;;;64.32;31.65;;;;;;;11.94;56.77;100457.09;4467429;32;34208;-54
2021/11/14 09:53:05;;;;;;;60.40;31.25;;;;;;;12.05;56.50;100454.53;4467318;32;33892;-54
2021/11/14 09:55:35;;;;;;;65.62;32.97;;;;;;;12.04;56.17;100455.38;4467568;32;33870;-54
2021/11/14 09:58:07;;;;;;;64.75;32.17;;;;;;;12.35;55.05;100448.53;4467329;32;34895;-54
2021/11/14 10:00:38;;;;;;;61.83;30.60;;;;;;;12.13;58.73;100448.47;4467688;32;35150;-58
2021/11/14 10:03:07;;;;;;;67.25;33.17;;;;;;;12.18;56.15;100445.88;4467310;32;33885;-55
2021/11/14 10:05:37;;;;;;;65.15;33.03;;;;;;;12.34;56.25;100437.22;4467499;32;33948;-56
2021/11/14 10:08:08;;;;;;;57.22;30.88;;;;;;;12.34;56.02;100436.38;4466200;32;35027;-57
2021/11/14 10:10:46;;;;;;;67.82;33.50;;;;;;;12.61;54.99;100432.09;4467362;32;34078;-52
2021/11/14 10:13:20;;;;;;;59.60;30.25;;;;;;;12.48;55.46;100435.53;4467898;32;33816;-55
2021/11/14 10:16:19;;;;;;;60.20;31.70;;;;;;;12.56;55.25;100433.81;4467153;32;34688;-55
2021/11/14 10:18:51;;;;;;;62.25;31.83;;;;;;;12.62;54.98;100428.59;4467982;32;35745;-57
2021/11/14 10:21:20;;;;;;;58.55;30.33;;;;;;;12.64;54.95;100432.09;4468007;32;35435;-54
2021/11/14 10:23:50;;;;;;;61.15;31.15;;;;;;;12.61;54.96;100432.09;4467622;32;33826;-54
2021/11/14 10:26:18;;;;;;;55.92;32.53;;;;;;;12.37;58.55;100433.75;4467419;32;34527;-53
2021/11/14 10:28:48;;;;;;;62.13;31.42;;;;;;;12.69;55.59;100427.72;4467532;32;34854;-58
2021/11/14 10:31:22;;;;;;;64.43;31.08;;;;;;;12.47;55.70;100423.37;4467428;32;34755;-57
2021/11/14 10:33:51;;;;;;;57.55;30.77;;;;;;;12.60;55.10;100425.09;4466297;32;34994;-57
2021/11/14 10:36:19;;;;;;;56.88;29.12;;;;;;;12.58;55.14;100426.84;4467554;32;34403;-53
2021/11/14 10:38:50;;;;;;;58.95;31.30;;;;;;;12.75;54.76;100429.47;4467610;32;35783;-56
2021/11/14 10:41:18;;;;;;;65.25;31.30;;;;;;;12.93;53.83;100434.75;4467427;32;35179;-55
2021/11/14 10:43:48;;;;;;;54.03;30.25;;;;;;;13.04;53.66;100432.09;4467504;32;34461;-54
2021/11/14 10:46:20;;;;;;;56.97;29.92;;;;;;;13.08;53.29;100429.53;4467735;32;34131;-53
2021/11/14 10:48:48;;;;;;;60.75;32.15;;;;;;;13.00;53.81;100435.59;4467427;32;34778;-58
2021/11/14 10:51:16;;;;;;;61.55;30.50;;;;;;;13.13;53.19;100437.34;4467408;32;35464;-59
2021/11/14 10:53:48;;;;;;;59.33;30.88;;;;;;;13.15;53.21;100435.59;4467587;32;34138;-52
2021/11/14 10:56:18;;;;;;;;;;;;;;;13.26;53.18;100429.53;4466505;32;35446;-57
2021/11/14 10:58:45;;;;;;;56.10;30.95;;;;;;;13.26;52.26;100426.91;4467005;32;34906;-54
2021/11/14 11:01:15;;;;;;;57.15;31.42;;;;;;;13.39;52.48;100428.62;4467191;32;35116;-55
2021/11/14 11:03:49;;;;;;;54.65;30.85;;;;;;;13.51;52.19;100423.37;4467431;32;33848;-55
2021/11/14 11:06:24;;;;;;;52.75;29.52;;;;;;;13.63;51.90;100408.53;4465930;32;33548;-54
2021/11/14 11:09:01;;;;;;;55.83;31.10;;;;;;;13.73;51.69;100407.63;4467284;32;34744;-56
2021/11/14 11:11:34;;;;;;;53.63;29.05;;;;;;;13.57;51.80;100399.81;4466371;32;35901;-58
2021/11/14 11:14:02;;;;;;;58.55;28.75;;;;;;;13.67;51.06;100392.81;4467102;32;33597;-55
2021/11/14 11:16:32;;;;;;;49.15;27.05;;;;;;;13.53;51.94;100399.84;4466854;32;33561;-55
2021/11/14 11:18:59;;;;;;;54.42;31.23;;;;;;;13.33;52.54;100401.66;4468552;32;35095;-57